createdAt,value
2022-09-10T00:03:39.642Z,3.9565217391304346
2022-09-10T00:10:05.303Z,3.2240802675585285
2022-09-10T00:16:31.448Z,3.280936454849498
2022-09-10T00:24:54.216Z,3.5585284280936453
2022-09-10T00:31:19.555Z,3.5785953177257523
2022-09-10T00:37:45.257Z,3.7558528428093645
2022-09-10T00:44:11.126Z,4.525083612040134
2022-09-10T00:50:36.858Z,3.9698996655518393
2022-09-10T00:57:01.972Z,4.214046822742475
2022-09-10T01:03:27.024Z,3.4180602006688963
2022-09-10T01:09:53.122Z,4.173913043478261
2022-09-10T01:16:18.813Z,3.9364548494983276
2022-09-10T01:22:44.659Z,4.334448160535117
2022-09-10T01:34:14.967Z,4.2441471571906355
2022-09-10T01:43:01.802Z,4.351170568561873
2022-09-10T01:49:27.985Z,4.9397993311036785
2022-09-10T01:55:54.482Z,4.9799331103678925
2022-09-10T02:02:20.034Z,4.488294314381271
2022-09-10T02:08:46.071Z,4.648829431438127
2022-09-10T02:15:11.731Z,4.802675585284281
2022-09-10T02:21:36.750Z,5.34113712374582
2022-09-10T02:28:10.880Z,4.926421404682274
2022-09-10T02:40:19.765Z,6.05685618729097
2022-09-10T02:46:44.688Z,5.073578595317726
2022-09-10T02:56:12.425Z,5.354515050167224
2022-09-10T03:05:02.892Z,6.418060200668896
2022-09-10T03:11:28.514Z,5.585284280936455
2022-09-10T03:17:54.599Z,6.548494983277592
2022-09-10T03:24:29.348Z,6.966555183946488
2022-09-10T03:30:56.171Z,6.608695652173913
2022-09-10T03:37:21.576Z,7.120401337792642
2022-09-10T03:43:47.365Z,7.280936454849498
2022-09-10T03:50:13.521Z,8.150501672240802
2022-09-10T03:56:39.465Z,8.658862876254181
2022-09-10T04:03:25.748Z,8.899665551839465
2022-09-10T04:09:51.353Z,8.715719063545151
2022-09-10T04:16:17.080Z,8.976588628762542
2022-09-10T04:22:42.597Z,9.618729096989966
2022-09-10T04:29:15.744Z,10.294314381270903
2022-09-10T04:41:39.757Z,11.979933110367893
2022-09-10T04:48:07.220Z,12.123745819397993
2022-09-10T04:54:32.769Z,13.488294314381271
2022-09-10T05:00:58.537Z,14.307692307692308
2022-09-10T05:10:17.149Z,13.076923076923077
2022-09-10T05:16:42.931Z,17.682274247491637
2022-09-10T05:23:15.295Z,16.40468227424749
2022-09-10T05:29:42.522Z,13.74581939799331
2022-09-10T05:36:09.566Z,13.224080267558529
2022-09-10T05:42:35.625Z,14.48494983277592
2022-09-10T05:51:22.020Z,13.66220735785953
2022-09-10T06:03:18.498Z,14.91638795986622
2022-09-10T06:09:44.586Z,14.672240802675585
2022-09-10T06:16:10.926Z,14.551839464882944
2022-09-10T06:22:38.436Z,14.418060200668897
2022-09-10T06:32:02.053Z,14.85953177257525
2022-09-10T06:38:30.478Z,13.889632107023411
2022-09-10T06:45:32.643Z,14.19732441471572
2022-09-10T06:51:58.419Z,15.123745819397993
2022-09-10T07:04:52.576Z,15.404682274247492
2022-09-10T07:12:41.844Z,15.478260869565217
2022-09-10T07:19:13.120Z,16.13377926421405
2022-09-10T07:25:54.608Z,16.010033444816052
2022-09-10T07:32:19.810Z,16.441471571906355
2022-09-10T07:38:45.373Z,15.093645484949834
2022-09-10T07:51:51.130Z,17.023411371237458
2022-09-10T07:58:18.739Z,17.692307692307693
2022-09-10T08:04:45.310Z,17.67558528428094
2022-09-10T08:11:12.496Z,18.29096989966555
2022-09-10T08:17:39.102Z,18.705685618729095
2022-09-10T08:24:14.708Z,19.45484949832776
2022-09-10T08:30:40.481Z,19.86622073578595
2022-09-10T08:42:57.494Z,20.505016722408026
2022-09-10T08:49:23.677Z,21.682274247491637
2022-09-10T08:55:52.928Z,21.418060200668897
2022-09-10T09:22:00.336Z,24.32441471571906
2022-09-10T09:28:37.138Z,24.76923076923077
2022-09-10T09:35:03.237Z,23.53846153846154
2022-09-10T09:48:36.814Z,26.096989966555185
2022-09-10T09:59:15.197Z,25.97993311036789
2022-09-10T10:05:40.483Z,27.150501672240804
2022-09-10T10:12:52.561Z,28.08026755852843
2022-09-10T10:19:17.864Z,27.220735785953178
2022-09-10T10:31:25.124Z,26.434782608695652
2022-09-10T10:37:56.355Z,25.698996655518396
2022-09-10T10:44:21.832Z,25.97993311036789
2022-09-10T10:56:20.571Z,23.264214046822744
2022-09-10T11:07:10.022Z,21.34448160535117
2022-09-10T11:13:36.697Z,21.45484949832776
2022-09-10T11:20:24.222Z,18.157190635451506
2022-09-10T11:27:07.696Z,17.65551839464883
2022-09-10T11:37:45.997Z,18.49163879598662
2022-09-10T11:44:13.823Z,17.642140468227424
2022-09-10T11:50:43.708Z,17.214046822742475
2022-09-10T11:57:17.286Z,17.110367892976587
2022-09-10T12:03:49.375Z,17.267558528428093
2022-09-10T12:10:17.042Z,17.906354515050168
2022-09-10T12:16:42.764Z,16.695652173913043
2022-09-10T12:23:10.239Z,15.846153846153847
2022-09-10T12:29:54.551Z,13.444816053511706
2022-09-10T12:39:59.354Z,14.785953177257525
2022-09-10T12:46:23.910Z,15.491638795986622
2022-09-10T12:52:48.388Z,14.919732441471572
2022-09-10T12:59:15.383Z,12.785953177257525
2022-09-10T13:06:35.160Z,13.792642140468228
2022-09-10T13:12:57.856Z,12.073578595317725
2022-09-10T13:19:21.092Z,10.37458193979933
2022-09-10T13:33:43.027Z,9.62541806020067
2022-09-10T13:40:05.825Z,9.130434782608695
2022-09-10T13:46:29.847Z,13.946488294314381
2022-09-10T13:55:01.579Z,15.488294314381271
2022-09-10T14:01:24.974Z,15.234113712374581
2022-09-10T14:07:47.806Z,14.471571906354516
2022-09-10T14:14:10.729Z,14.719063545150501
2022-09-10T14:20:31.784Z,13.66220735785953
2022-09-10T14:36:32.375Z,12.622073578595318
2022-09-10T14:42:54.471Z,11.25752508361204
2022-09-10T14:49:15.939Z,11.568561872909699
2022-09-10T14:56:04.256Z,12.68227424749164
2022-09-10T15:02:27.560Z,13.247491638795987
2022-09-10T15:08:50.669Z,14.37123745819398
2022-09-10T15:15:17.431Z,14.22742474916388
2022-09-10T15:21:41.542Z,15.177257525083611
2022-09-10T15:33:42.758Z,18.80267558528428
2022-09-10T15:40:06.282Z,17.37123745819398
2022-09-10T15:55:11.155Z,16.163879598662206
2022-09-10T16:01:40.719Z,15.565217391304348
2022-09-10T16:08:07.102Z,14.765886287625419
2022-09-10T16:14:32.962Z,13.588628762541806
2022-09-10T16:21:53.179Z,14.33779264214047
2022-09-10T16:28:16.164Z,17.525083612040135
2022-09-10T16:34:39.058Z,18.277591973244146
2022-09-10T16:48:39.154Z,19.20066889632107
2022-09-10T16:55:02.071Z,15.548494983277592
2022-09-10T17:09:02.184Z,18.02006688963211
2022-09-10T17:18:36.078Z,20.638795986622075
2022-09-10T17:25:17.672Z,22.013377926421406
2022-09-10T17:31:44.212Z,25.130434782608695
2022-09-10T17:38:10.476Z,23.638795986622075
2022-09-10T17:44:36.097Z,24.695652173913043
2022-09-10T17:51:26.347Z,25.53846153846154
2022-09-10T17:58:39.487Z,27.307692307692307
2022-09-10T18:11:17.101Z,24.632107023411372
2022-09-10T18:22:03.851Z,22.20066889632107
2022-09-10T18:28:37.991Z,24.294314381270905
2022-09-10T18:35:04.597Z,22.08695652173913
2022-09-10T18:41:31.110Z,22.294314381270905
2022-09-10T18:47:58.944Z,21.839464882943144
2022-09-10T18:54:26.283Z,22.819397993311036
2022-09-10T19:00:58.389Z,23.759197324414714
2022-09-10T19:07:33.288Z,23.869565217391305
2022-09-10T19:14:11.848Z,24.859531772575252
2022-09-10T19:20:48.032Z,24.692307692307693
2022-09-10T19:27:46.753Z,23.418060200668897
2022-09-10T19:38:05.757Z,24.234113712374583
2022-09-10T19:45:43.367Z,27.294314381270905
2022-09-10T19:52:17.453Z,29.217391304347824
2022-09-10T19:58:55.983Z,27.682274247491637
2022-09-10T20:05:24.362Z,27.153846153846153
2022-09-10T20:11:53.588Z,27.391304347826086
2022-09-10T20:18:24.182Z,27.023411371237458
2022-09-10T20:31:09.683Z,27.94983277591973
2022-09-10T20:37:43.685Z,28.17056856187291
2022-09-10T20:44:18.577Z,29.91304347826087
2022-09-10T20:50:56.233Z,28.849498327759196
2022-09-10T21:02:03.851Z,29.976588628762542
2022-09-10T21:08:39.912Z,33.876254180602004
2022-09-10T21:15:21.871Z,31.414715719063544
2022-09-10T21:32:02.533Z,29.49163879598662
2022-09-10T21:38:43.503Z,29.070234113712374
2022-09-10T21:45:16.613Z,31.307692307692307
2022-09-10T21:51:50.859Z,31.97993311036789
2022-09-10T22:01:43.888Z,32.43478260869565
2022-09-10T22:08:16.953Z,32.34448160535117
2022-09-10T22:19:28.373Z,30.224080267558527
2022-09-10T22:30:28.022Z,29.732441471571907
2022-09-10T22:38:37.147Z,30.207357859531772
2022-09-10T22:45:02.476Z,28.270903010033443
2022-09-10T22:53:55.355Z,27.14715719063545
2022-09-10T23:00:20.793Z,26.096989966555185
2022-09-10T23:06:46.729Z,28.304347826086957
2022-09-10T23:13:12.882Z,28.585284280936456
2022-09-10T23:23:16.825Z,28.180602006688964
2022-09-10T23:29:43.810Z,28.31438127090301
2022-09-10T23:36:10.251Z,27.28428093645485
2022-09-10T23:43:23.219Z,27.879598662207357
2022-09-10T23:54:17.858Z,29.53846153846154
